sensor_id;sensor_type;location;lat;lon;timestamp;temperature;humidity
6186;DHT22;3126;52.738;8.316;2023-05-10T00:04:29;14.50;99.90
6186;DHT22;3126;52.738;8.316;2023-05-10T00:09:30;14.50;99.90
6186;DHT22;3126;52.738;8.316;2023-05-10T00:14:30;14.50;99.90
6186;DHT22;3126;52.738;8.316;2023-05-10T00:19:31;14.50;99.90
6186;DHT22;3126;52.738;8.316;2023-05-10T00:24:32;14.50;99.90
6186;DHT22;3126;52.738;8.316;2023-05-10T00:29:32;14.50;99.90
6186;DHT22;3126;52.738;8.316;2023-05-10T00:34:34;14.50;99.90
6186;DHT22;3126;52.738;8.316;2023-05-10T00:39:34;14.50;99.90
6186;DHT22;3126;52.738;8.316;2023-05-10T00:44:35;14.50;99.90
6186;DHT22;3126;52.738;8.316;2023-05-10T00:49:36;14.40;99.90
6186;DHT22;3126;52.738;8.316;2023-05-10T00:54:37;14.40;99.90
6186;DHT22;3126;52.738;8.316;2023-05-10T00:59:37;14.40;99.90
6186;DHT22;3126;52.738;8.316;2023-05-10T01:04:38;14.30;99.90
6186;DHT22;3126;52.738;8.316;2023-05-10T01:09:39;14.30;99.90
6186;DHT22;3126;52.738;8.316;2023-05-10T01:14:40;14.30;99.90
6186;DHT22;3126;52.738;8.316;2023-05-10T01:19:41;14.30;99.90
6186;DHT22;3126;52.738;8.316;2023-05-10T01:35:22;14.20;99.90
6186;DHT22;3126;52.738;8.316;2023-05-10T01:40:35;14.30;99.90
6186;DHT22;3126;52.738;8.316;2023-05-10T01:45:43;14.30;99.90
6186;DHT22;3126;52.738;8.316;2023-05-10T01:50:46;14.20;99.90
6186;DHT22;3126;52.738;8.316;2023-05-10T01:55:50;14.20;99.90
6186;DHT22;3126;52.738;8.316;2023-05-10T02:00:53;14.20;99.90
6186;DHT22;3126;52.738;8.316;2023-05-10T02:05:55;14.20;99.90
6186;DHT22;3126;52.738;8.316;2023-05-10T02:10:56;14.20;99.90
6186;DHT22;3126;52.738;8.316;2023-05-10T02:15:59;14.20;99.90
6186;DHT22;3126;52.738;8.316;2023-05-10T02:21:01;14.20;99.90
6186;DHT22;3126;52.738;8.316;2023-05-10T02:26:02;14.20;99.90
6186;DHT22;3126;52.738;8.316;2023-05-10T02:31:05;14.20;99.90
6186;DHT22;3126;52.738;8.316;2023-05-10T02:36:07;14.20;99.90
6186;DHT22;3126;52.738;8.316;2023-05-10T02:41:10;14.20;99.90
6186;DHT22;3126;52.738;8.316;2023-05-10T02:46:11;14.20;99.90
6186;DHT22;3126;52.738;8.316;2023-05-10T02:51:12;14.20;99.90
6186;DHT22;3126;52.738;8.316;2023-05-10T02:56:25;14.20;99.90
6186;DHT22;3126;52.738;8.316;2023-05-10T03:01:29;14.20;99.90
6186;DHT22;3126;52.738;8.316;2023-05-10T03:06:29;14.20;99.90
6186;DHT22;3126;52.738;8.316;2023-05-10T03:16:45;14.00;99.90
6186;DHT22;3126;52.738;8.316;2023-05-10T03:21:50;13.80;99.90
6186;DHT22;3126;52.738;8.316;2023-05-10T03:26:55;13.60;99.90
6186;DHT22;3126;52.738;8.316;2023-05-10T03:31:58;13.50;99.90
6186;DHT22;3126;52.738;8.316;2023-05-10T03:36:59;13.50;99.90
6186;DHT22;3126;52.738;8.316;2023-05-10T03:42:00;13.40;99.90
6186;DHT22;3126;52.738;8.316;2023-05-10T03:47:00;13.40;99.90
6186;DHT22;3126;52.738;8.316;2023-05-10T03:52:01;13.40;99.90
6186;DHT22;3126;52.738;8.316;2023-05-10T03:57:01;13.30;99.90
6186;DHT22;3126;52.738;8.316;2023-05-10T04:02:03;13.30;99.90
6186;DHT22;3126;52.738;8.316;2023-05-10T04:07:03;13.30;99.90
6186;DHT22;3126;52.738;8.316;2023-05-10T04:12:04;13.30;99.90
6186;DHT22;3126;52.738;8.316;2023-05-10T04:17:05;13.30;99.90
6186;DHT22;3126;52.738;8.316;2023-05-10T04:22:06;13.30;99.90
6186;DHT22;3126;52.738;8.316;2023-05-10T04:27:06;13.30;99.90
6186;DHT22;3126;52.738;8.316;2023-05-10T04:32:07;13.20;99.90
6186;DHT22;3126;52.738;8.316;2023-05-10T04:37:08;13.00;99.90
6186;DHT22;3126;52.738;8.316;2023-05-10T04:42:09;12.90;99.90
6186;DHT22;3126;52.738;8.316;2023-05-10T04:47:09;12.70;99.90
6186;DHT22;3126;52.738;8.316;2023-05-10T04:52:10;12.60;99.90
6186;DHT22;3126;52.738;8.316;2023-05-10T04:57:11;12.60;99.90
6186;DHT22;3126;52.738;8.316;2023-05-10T05:02:12;12.50;99.90
6186;DHT22;3126;52.738;8.316;2023-05-10T05:07:12;12.50;99.90
6186;DHT22;3126;52.738;8.316;2023-05-10T05:12:13;12.50;99.90
6186;DHT22;3126;52.738;8.316;2023-05-10T05:17:14;12.50;99.90
6186;DHT22;3126;52.738;8.316;2023-05-10T05:22:14;12.50;99.90
6186;DHT22;3126;52.738;8.316;2023-05-10T05:27:15;12.50;99.90
6186;DHT22;3126;52.738;8.316;2023-05-10T05:32:16;12.50;99.90
6186;DHT22;3126;52.738;8.316;2023-05-10T05:37:19;12.50;99.90
6186;DHT22;3126;52.738;8.316;2023-05-10T05:42:19;12.60;99.90
6186;DHT22;3126;52.738;8.316;2023-05-10T05:47:20;12.60;99.90
6186;DHT22;3126;52.738;8.316;2023-05-10T05:52:21;12.60;99.90
6186;DHT22;3126;52.738;8.316;2023-05-10T05:57:21;12.60;99.90
6186;DHT22;3126;52.738;8.316;2023-05-10T06:02:22;12.70;99.90
6186;DHT22;3126;52.738;8.316;2023-05-10T06:07:22;12.70;99.90
6186;DHT22;3126;52.738;8.316;2023-05-10T06:12:23;12.70;99.90
6186;DHT22;3126;52.738;8.316;2023-05-10T06:17:23;12.70;99.90
6186;DHT22;3126;52.738;8.316;2023-05-10T06:22:24;12.80;99.90
6186;DHT22;3126;52.738;8.316;2023-05-10T06:27:25;12.80;99.90
6186;DHT22;3126;52.738;8.316;2023-05-10T06:32:26;12.80;99.90
6186;DHT22;3126;52.738;8.316;2023-05-10T06:37:26;12.90;99.90
6186;DHT22;3126;52.738;8.316;2023-05-10T06:42:27;12.90;99.90
6186;DHT22;3126;52.738;8.316;2023-05-10T06:47:27;13.00;99.90
6186;DHT22;3126;52.738;8.316;2023-05-10T06:52:28;13.00;99.90
6186;DHT22;3126;52.738;8.316;2023-05-10T06:57:28;13.20;99.90
6186;DHT22;3126;52.738;8.316;2023-05-10T07:02:29;13.30;99.90
6186;DHT22;3126;52.738;8.316;2023-05-10T07:07:30;13.40;99.90
6186;DHT22;3126;52.738;8.316;2023-05-10T07:12:30;13.40;99.90
6186;DHT22;3126;52.738;8.316;2023-05-10T07:17:31;13.50;99.90
6186;DHT22;3126;52.738;8.316;2023-05-10T07:22:33;13.50;99.90
6186;DHT22;3126;52.738;8.316;2023-05-10T07:27:34;13.40;99.90
6186;DHT22;3126;52.738;8.316;2023-05-10T07:32:34;13.30;99.90
6186;DHT22;3126;52.738;8.316;2023-05-10T07:37:35;13.30;99.90
6186;DHT22;3126;52.738;8.316;2023-05-10T07:42:36;13.40;99.90
6186;DHT22;3126;52.738;8.316;2023-05-10T07:47:36;13.40;99.90
6186;DHT22;3126;52.738;8.316;2023-05-10T07:52:37;13.50;99.90
6186;DHT22;3126;52.738;8.316;2023-05-10T07:57:37;13.70;99.90
6186;DHT22;3126;52.738;8.316;2023-05-10T08:02:38;13.90;99.90
6186;DHT22;3126;52.738;8.316;2023-05-10T08:07:39;14.00;99.90
6186;DHT22;3126;52.738;8.316;2023-05-10T08:12:39;13.90;99.90
6186;DHT22;3126;52.738;8.316;2023-05-10T08:17:40;14.00;99.90
6186;DHT22;3126;52.738;8.316;2023-05-10T08:22:41;14.00;99.90
6186;DHT22;3126;52.738;8.316;2023-05-10T08:27:41;14.00;99.90
6186;DHT22;3126;52.738;8.316;2023-05-10T08:32:42;14.20;99.90
6186;DHT22;3126;52.738;8.316;2023-05-10T08:37:42;14.70;99.90
6186;DHT22;3126;52.738;8.316;2023-05-10T08:42:47;15.50;99.90
6186;DHT22;3126;52.738;8.316;2023-05-10T08:47:52;15.60;99.90
6186;DHT22;3126;52.738;8.316;2023-05-10T08:52:55;15.70;99.90
6186;DHT22;3126;52.738;8.316;2023-05-10T08:57:57;16.00;99.90
6186;DHT22;3126;52.738;8.316;2023-05-10T09:02:59;16.30;99.90
6186;DHT22;3126;52.738;8.316;2023-05-10T09:08:00;15.90;99.90
6186;DHT22;3126;52.738;8.316;2023-05-10T09:13:03;15.30;99.90
6186;DHT22;3126;52.738;8.316;2023-05-10T09:18:04;15.10;99.90
6186;DHT22;3126;52.738;8.316;2023-05-10T09:23:04;15.00;99.90
6186;DHT22;3126;52.738;8.316;2023-05-10T09:28:06;14.90;99.90
6186;DHT22;3126;52.738;8.316;2023-05-10T09:33:07;14.90;99.90
6186;DHT22;3126;52.738;8.316;2023-05-10T09:38:08;14.90;99.90
6186;DHT22;3126;52.738;8.316;2023-05-10T09:43:10;15.30;99.90
6186;DHT22;3126;52.738;8.316;2023-05-10T09:48:11;15.50;99.90
6186;DHT22;3126;52.738;8.316;2023-05-10T09:53:14;15.60;99.90
6186;DHT22;3126;52.738;8.316;2023-05-10T09:58:15;14.90;99.90
6186;DHT22;3126;52.738;8.316;2023-05-10T10:03:18;14.40;99.90
6186;DHT22;3126;52.738;8.316;2023-05-10T10:08:19;14.60;99.90
6186;DHT22;3126;52.738;8.316;2023-05-10T10:13:20;14.60;99.90
6186;DHT22;3126;52.738;8.316;2023-05-10T10:18:21;14.70;99.90
6186;DHT22;3126;52.738;8.316;2023-05-10T10:23:27;14.60;99.90
6186;DHT22;3126;52.738;8.316;2023-05-10T10:28:57;14.60;99.90
6186;DHT22;3126;52.738;8.316;2023-05-10T10:34:05;14.70;99.90
6186;DHT22;3126;52.738;8.316;2023-05-10T10:39:09;14.70;99.90
6186;DHT22;3126;52.738;8.316;2023-05-10T10:54:41;14.70;99.90
6186;DHT22;3126;52.738;8.316;2023-05-10T10:59:43;15.20;99.90
6186;DHT22;3126;52.738;8.316;2023-05-10T11:04:46;15.60;99.90
6186;DHT22;3126;52.738;8.316;2023-05-10T11:09:47;15.70;99.90
6186;DHT22;3126;52.738;8.316;2023-05-10T11:14:51;15.80;99.90
6186;DHT22;3126;52.738;8.316;2023-05-10T11:20:13;15.90;99.90
6186;DHT22;3126;52.738;8.316;2023-05-10T11:25:14;15.70;99.90
6186;DHT22;3126;52.738;8.316;2023-05-10T11:30:14;16.10;99.90
6186;DHT22;3126;52.738;8.316;2023-05-10T11:35:15;15.80;99.90
6186;DHT22;3126;52.738;8.316;2023-05-10T11:40:15;15.30;99.90
6186;DHT22;3126;52.738;8.316;2023-05-10T11:45:16;15.10;99.90
6186;DHT22;3126;52.738;8.316;2023-05-10T11:50:17;14.80;99.90
6186;DHT22;3126;52.738;8.316;2023-05-10T11:55:18;15.00;99.90
6186;DHT22;3126;52.738;8.316;2023-05-10T12:00:19;15.00;99.90
6186;DHT22;3126;52.738;8.316;2023-05-10T12:05:20;15.10;99.90
6186;DHT22;3126;52.738;8.316;2023-05-10T12:10:26;14.80;99.90
6186;DHT22;3126;52.738;8.316;2023-05-10T12:15:27;14.80;99.90
6186;DHT22;3126;52.738;8.316;2023-05-10T12:20:28;14.80;99.90
6186;DHT22;3126;52.738;8.316;2023-05-10T12:25:33;15.10;99.90
6186;DHT22;3126;52.738;8.316;2023-05-10T12:30:35;15.50;99.90
6186;DHT22;3126;52.738;8.316;2023-05-10T12:35:49;15.80;99.90
6186;DHT22;3126;52.738;8.316;2023-05-10T12:40:50;16.00;99.90
6186;DHT22;3126;52.738;8.316;2023-05-10T12:45:51;16.20;99.90
6186;DHT22;3126;52.738;8.316;2023-05-10T12:50:51;16.50;99.90
6186;DHT22;3126;52.738;8.316;2023-05-10T12:55:52;16.50;96.80
6186;DHT22;3126;52.738;8.316;2023-05-10T13:00:53;16.50;95.30
6186;DHT22;3126;52.738;8.316;2023-05-10T13:05:54;16.50;95.60
6186;DHT22;3126;52.738;8.316;2023-05-10T13:10:54;16.60;96.10
6186;DHT22;3126;52.738;8.316;2023-05-10T13:15:55;16.80;94.70
6186;DHT22;3126;52.738;8.316;2023-05-10T13:20:55;16.60;94.50
6186;DHT22;3126;52.738;8.316;2023-05-10T13:25:56;16.60;95.50
6186;DHT22;3126;52.738;8.316;2023-05-10T13:30:57;16.30;97.10
6186;DHT22;3126;52.738;8.316;2023-05-10T13:35:57;16.30;96.80
6186;DHT22;3126;52.738;8.316;2023-05-10T13:40:58;16.90;96.80
6186;DHT22;3126;52.738;8.316;2023-05-10T13:45:58;17.20;91.80
6186;DHT22;3126;52.738;8.316;2023-05-10T13:50:59;17.20;92.20
6186;DHT22;3126;52.738;8.316;2023-05-10T13:55:59;17.60;89.10
6186;DHT22;3126;52.738;8.316;2023-05-10T14:01:00;18.20;89.90
6186;DHT22;3126;52.738;8.316;2023-05-10T14:06:01;18.40;87.60
6186;DHT22;3126;52.738;8.316;2023-05-10T14:11:01;18.10;87.00
6186;DHT22;3126;52.738;8.316;2023-05-10T14:16:02;17.30;91.10
6186;DHT22;3126;52.738;8.316;2023-05-10T14:21:03;16.90;96.00
6186;DHT22;3126;52.738;8.316;2023-05-10T14:26:04;16.80;92.70
6186;DHT22;3126;52.738;8.316;2023-05-10T14:31:04;16.70;92.70
6186;DHT22;3126;52.738;8.316;2023-05-10T14:36:06;16.90;92.20
6186;DHT22;3126;52.738;8.316;2023-05-10T14:41:07;16.90;91.70
6186;DHT22;3126;52.738;8.316;2023-05-10T14:46:08;16.80;92.90
6186;DHT22;3126;52.738;8.316;2023-05-10T14:51:09;16.90;95.20
6186;DHT22;3126;52.738;8.316;2023-05-10T14:56:09;17.20;91.70
6186;DHT22;3126;52.738;8.316;2023-05-10T15:01:10;17.20;92.10
6186;DHT22;3126;52.738;8.316;2023-05-10T15:06:11;17.20;93.00
6186;DHT22;3126;52.738;8.316;2023-05-10T15:11:12;16.90;93.80
6186;DHT22;3126;52.738;8.316;2023-05-10T15:16:12;17.00;94.60
6186;DHT22;3126;52.738;8.316;2023-05-10T15:21:13;17.10;96.60
6186;DHT22;3126;52.738;8.316;2023-05-10T15:26:13;17.10;92.20
6186;DHT22;3126;52.738;8.316;2023-05-10T15:31:14;16.70;92.80
6186;DHT22;3126;52.738;8.316;2023-05-10T15:36:14;16.60;93.20
6186;DHT22;3126;52.738;8.316;2023-05-10T15:41:17;16.70;93.90
6186;DHT22;3126;52.738;8.316;2023-05-10T15:46:17;16.80;91.60
6186;DHT22;3126;52.738;8.316;2023-05-10T15:51:18;16.70;89.70
6186;DHT22;3126;52.738;8.316;2023-05-10T15:56:18;16.80;89.40
6186;DHT22;3126;52.738;8.316;2023-05-10T16:01:19;16.80;90.10
6186;DHT22;3126;52.738;8.316;2023-05-10T16:06:20;16.90;91.00
6186;DHT22;3126;52.738;8.316;2023-05-10T16:11:20;17.00;91.80
6186;DHT22;3126;52.738;8.316;2023-05-10T16:16:21;17.20;91.60
6186;DHT22;3126;52.738;8.316;2023-05-10T16:21:21;17.20;91.20
6186;DHT22;3126;52.738;8.316;2023-05-10T16:26:22;16.90;92.20
6186;DHT22;3126;52.738;8.316;2023-05-10T16:31:23;16.80;91.40
6186;DHT22;3126;52.738;8.316;2023-05-10T16:36:24;16.80;93.50
6186;DHT22;3126;52.738;8.316;2023-05-10T16:41:24;16.60;92.90
6186;DHT22;3126;52.738;8.316;2023-05-10T16:46:25;16.50;94.70
6186;DHT22;3126;52.738;8.316;2023-05-10T16:51:26;16.50;96.50
6186;DHT22;3126;52.738;8.316;2023-05-10T16:56:27;16.50;96.20
6186;DHT22;3126;52.738;8.316;2023-05-10T17:01:27;16.50;96.50
6186;DHT22;3126;52.738;8.316;2023-05-10T17:06:28;16.70;96.90
6186;DHT22;3126;52.738;8.316;2023-05-10T17:11:28;16.90;95.80
6186;DHT22;3126;52.738;8.316;2023-05-10T17:16:29;17.00;95.40
6186;DHT22;3126;52.738;8.316;2023-05-10T17:21:30;17.00;95.80
6186;DHT22;3126;52.738;8.316;2023-05-10T17:26:31;17.10;94.20
6186;DHT22;3126;52.738;8.316;2023-05-10T17:31:31;17.10;94.20
6186;DHT22;3126;52.738;8.316;2023-05-10T17:36:32;17.00;95.60
6186;DHT22;3126;52.738;8.316;2023-05-10T17:41:32;16.90;94.90
6186;DHT22;3126;52.738;8.316;2023-05-10T17:46:34;16.80;95.70
6186;DHT22;3126;52.738;8.316;2023-05-10T17:51:34;16.70;97.50
6186;DHT22;3126;52.738;8.316;2023-05-10T17:56:35;16.80;97.50
6186;DHT22;3126;52.738;8.316;2023-05-10T18:01:36;16.70;97.80
6186;DHT22;3126;52.738;8.316;2023-05-10T18:06:36;16.60;96.20
6186;DHT22;3126;52.738;8.316;2023-05-10T18:11:37;16.50;95.50
6186;DHT22;3126;52.738;8.316;2023-05-10T18:16:38;16.30;96.10
6186;DHT22;3126;52.738;8.316;2023-05-10T18:21:39;16.20;96.70
6186;DHT22;3126;52.738;8.316;2023-05-10T18:26:39;16.00;96.80
6186;DHT22;3126;52.738;8.316;2023-05-10T18:31:40;15.80;97.90
6186;DHT22;3126;52.738;8.316;2023-05-10T18:36:42;15.70;99.90
6186;DHT22;3126;52.738;8.316;2023-05-10T18:41:43;15.50;99.90
6186;DHT22;3126;52.738;8.316;2023-05-10T18:46:44;15.30;99.90
6186;DHT22;3126;52.738;8.316;2023-05-10T18:51:45;15.20;99.90
6186;DHT22;3126;52.738;8.316;2023-05-10T18:56:47;15.00;99.90
6186;DHT22;3126;52.738;8.316;2023-05-10T19:01:48;14.80;99.90
6186;DHT22;3126;52.738;8.316;2023-05-10T19:06:48;14.70;99.90
6186;DHT22;3126;52.738;8.316;2023-05-10T19:11:50;14.60;99.90
6186;DHT22;3126;52.738;8.316;2023-05-10T19:16:50;14.50;99.90
6186;DHT22;3126;52.738;8.316;2023-05-10T19:21:51;14.40;99.90
6186;DHT22;3126;52.738;8.316;2023-05-10T19:26:52;14.30;99.90
6186;DHT22;3126;52.738;8.316;2023-05-10T19:31:52;14.30;99.90
6186;DHT22;3126;52.738;8.316;2023-05-10T19:36:53;14.20;99.90
6186;DHT22;3126;52.738;8.316;2023-05-10T19:41:53;14.10;99.90
6186;DHT22;3126;52.738;8.316;2023-05-10T19:46:54;14.10;99.90
6186;DHT22;3126;52.738;8.316;2023-05-10T19:51:54;14.10;99.90
6186;DHT22;3126;52.738;8.316;2023-05-10T19:56:55;14.10;99.90
6186;DHT22;3126;52.738;8.316;2023-05-10T20:01:56;14.10;99.90
6186;DHT22;3126;52.738;8.316;2023-05-10T20:06:56;14.10;99.90
6186;DHT22;3126;52.738;8.316;2023-05-10T20:11:57;14.20;99.90
6186;DHT22;3126;52.738;8.316;2023-05-10T20:16:58;14.20;99.90
6186;DHT22;3126;52.738;8.316;2023-05-10T20:21:59;14.20;99.90
6186;DHT22;3126;52.738;8.316;2023-05-10T20:27:00;14.20;99.90
6186;DHT22;3126;52.738;8.316;2023-05-10T20:32:01;14.20;99.90
6186;DHT22;3126;52.738;8.316;2023-05-10T20:37:02;14.20;99.90
6186;DHT22;3126;52.738;8.316;2023-05-10T20:42:03;14.20;99.90
6186;DHT22;3126;52.738;8.316;2023-05-10T20:47:03;14.20;99.90
6186;DHT22;3126;52.738;8.316;2023-05-10T20:52:04;14.20;99.90
6186;DHT22;3126;52.738;8.316;2023-05-10T20:57:05;14.20;99.90
6186;DHT22;3126;52.738;8.316;2023-05-10T21:02:06;14.20;99.90
6186;DHT22;3126;52.738;8.316;2023-05-10T21:07:06;14.10;99.90
6186;DHT22;3126;52.738;8.316;2023-05-10T21:12:07;14.00;99.90
6186;DHT22;3126;52.738;8.316;2023-05-10T21:17:08;13.90;99.90
6186;DHT22;3126;52.738;8.316;2023-05-10T21:22:08;13.90;99.90
6186;DHT22;3126;52.738;8.316;2023-05-10T21:27:09;13.80;99.90
6186;DHT22;3126;52.738;8.316;2023-05-10T21:32:10;13.80;99.90
6186;DHT22;3126;52.738;8.316;2023-05-10T21:37:10;13.80;99.90
6186;DHT22;3126;52.738;8.316;2023-05-10T21:42:11;13.80;99.90
6186;DHT22;3126;52.738;8.316;2023-05-10T21:47:11;13.90;99.90
6186;DHT22;3126;52.738;8.316;2023-05-10T21:52:12;13.90;99.90
6186;DHT22;3126;52.738;8.316;2023-05-10T21:57:12;13.90;99.90
6186;DHT22;3126;52.738;8.316;2023-05-10T22:02:13;13.90;99.90
6186;DHT22;3126;52.738;8.316;2023-05-10T22:07:13;13.80;99.90
6186;DHT22;3126;52.738;8.316;2023-05-10T22:12:16;13.80;99.90
6186;DHT22;3126;52.738;8.316;2023-05-10T22:17:16;13.80;99.90
6186;DHT22;3126;52.738;8.316;2023-05-10T22:22:17;13.70;99.90
6186;DHT22;3126;52.738;8.316;2023-05-10T22:27:17;13.70;99.90
6186;DHT22;3126;52.738;8.316;2023-05-10T22:32:18;13.60;99.90
6186;DHT22;3126;52.738;8.316;2023-05-10T22:37:19;13.60;99.90
6186;DHT22;3126;52.738;8.316;2023-05-10T22:42:19;13.50;99.90
6186;DHT22;3126;52.738;8.316;2023-05-10T22:47:20;13.40;99.90
6186;DHT22;3126;52.738;8.316;2023-05-10T22:52:20;13.40;99.90
6186;DHT22;3126;52.738;8.316;2023-05-10T22:57:21;13.40;99.90
6186;DHT22;3126;52.738;8.316;2023-05-10T23:02:21;13.30;99.90
6186;DHT22;3126;52.738;8.316;2023-05-10T23:07:22;13.30;99.90
6186;DHT22;3126;52.738;8.316;2023-05-10T23:12:23;13.30;99.90
6186;DHT22;3126;52.738;8.316;2023-05-10T23:17:24;13.30;99.90
6186;DHT22;3126;52.738;8.316;2023-05-10T23:22:24;13.30;99.90
6186;DHT22;3126;52.738;8.316;2023-05-10T23:27:28;13.30;99.90
6186;DHT22;3126;52.738;8.316;2023-05-10T23:32:29;13.20;99.90
6186;DHT22;3126;52.738;8.316;2023-05-10T23:37:30;13.20;99.90
6186;DHT22;3126;52.738;8.316;2023-05-10T23:42:31;13.30;99.90
6186;DHT22;3126;52.738;8.316;2023-05-10T23:47:32;13.20;99.90
6186;DHT22;3126;52.738;8.316;2023-05-10T23:52:32;13.20;99.90
6186;DHT22;3126;52.738;8.316;2023-05-10T23:57:33;13.10;99.90
